Terminal Aerodrome Forecast
Issued by NWS

Home | Current Version | Previous Version | Text Only | Print | Product List | Glossary On
Versions: 1 2 3 4 5 6 7 8 9 10 11 12 13 14 15 16 17
699
FTPA31 PHFO 230119 AAA
TAFHTO
TAF AMD
PHTO 230119Z 2301/2324 03010KT P6SM FEW035 BKN060 BKN140
     FM230400 33007KT P6SM VCSH FEW025 SCT045 OVC060
     FM230800 27010KT P6SM -SHRA SCT025 OVC045
     FM232000 02013KT P6SM VCSH FEW025 SCT045 OVC060=

USA.gov is the U.S. government's official web portal to all federal, state and local government web resources and services.